createdAt,value
2019-05-29T00:03:30.756Z,101063.41
2019-05-29T00:12:51.629Z,101076.52
2019-05-29T00:19:00.570Z,101074.61
2019-05-29T00:24:08.295Z,101086.58
2019-05-29T00:33:25.595Z,101093.02
2019-05-29T00:43:55.579Z,101101.00
2019-05-29T00:52:16.651Z,101099.66
2019-05-29T00:57:23.571Z,101103.45
2019-05-29T01:02:30.567Z,101114.00
2019-05-29T01:07:37.437Z,101114.00
2019-05-29T01:12:44.590Z,101122.61
2019-05-29T01:17:51.581Z,101132.31
2019-05-29T01:22:59.061Z,101142.94
2019-05-29T01:28:08.665Z,101142.94
2019-05-29T01:33:20.022Z,101158.84
2019-05-29T01:38:24.436Z,101158.84
2019-05-29T01:43:31.419Z,101175.56
2019-05-29T01:48:38.484Z,101175.56
2019-05-29T01:53:45.440Z,101186.39
2019-05-29T01:58:52.462Z,101194.72
2019-05-29T02:03:59.464Z,101199.45
2019-05-29T02:09:08.066Z,101216.63
2019-05-29T02:14:16.346Z,101216.63
2019-05-29T02:19:24.017Z,101220.23
2019-05-29T02:24:31.411Z,101231.36
2019-05-29T02:29:38.444Z,101233.83
2019-05-29T02:34:45.518Z,101229.11
2019-05-29T02:39:52.411Z,101230.78
2019-05-29T02:44:59.543Z,101239.16
2019-05-29T02:50:08.276Z,101242.56
2019-05-29T02:55:15.594Z,101253.98
2019-05-29T03:00:40.919Z,101269.59
2019-05-29T03:05:48.408Z,101269.59
2019-05-29T03:10:55.461Z,101279.09
2019-05-29T03:16:10.605Z,101289.06
2019-05-29T03:21:11.556Z,101296.03
2019-05-29T03:26:24.760Z,101296.03
2019-05-29T03:31:36.971Z,101311.89
2019-05-29T03:36:46.950Z,101321.03
2019-05-29T03:41:47.432Z,101327.69
2019-05-29T03:46:54.472Z,101340.48
2019-05-29T03:52:01.478Z,101351.86
2019-05-29T03:57:08.533Z,101371.92
2019-05-29T04:02:15.476Z,101373.58
2019-05-29T04:07:22.497Z,101387.44
2019-05-29T04:12:30.031Z,101401.06
2019-05-29T04:17:42.548Z,101401.06
2019-05-29T04:22:52.569Z,101411.52
2019-05-29T04:28:02.267Z,101423.48
2019-05-29T04:33:10.096Z,101423.48
2019-05-29T04:38:17.417Z,101430.41
2019-05-29T04:43:24.454Z,101434.29
2019-05-29T04:48:33.149Z,101447.64
2019-05-29T04:53:40.568Z,101458.48
2019-05-29T04:58:49.464Z,101465.20
2019-05-29T05:03:56.583Z,101474.37
2019-05-29T05:09:03.473Z,101479.33
2019-05-29T05:14:10.579Z,101491.52
2019-05-29T05:19:17.580Z,101505.68
2019-05-29T05:24:24.659Z,101507.92
2019-05-29T05:29:32.164Z,101519.05
2019-05-29T05:34:40.895Z,101519.05
2019-05-29T05:39:48.464Z,101520.66
2019-05-29T05:44:55.567Z,101530.97
2019-05-29T05:50:02.630Z,101544.10
2019-05-29T05:55:09.498Z,101578.58
2019-05-29T06:00:22.128Z,101578.58
2019-05-29T06:05:28.291Z,101580.73
2019-05-29T06:10:36.159Z,101597.42
2019-05-29T06:15:43.557Z,101600.23
2019-05-29T06:20:53.021Z,101608.30
2019-05-29T06:26:00.429Z,101608.30
2019-05-29T06:31:11.569Z,101606.50
2019-05-29T06:36:20.545Z,101616.77
2019-05-29T06:41:27.626Z,101619.36
2019-05-29T06:46:36.145Z,101635.75
2019-05-29T06:51:43.536Z,101635.75
2019-05-29T06:56:55.273Z,101640.33
2019-05-29T07:06:44.781Z,101655.13
2019-05-29T07:11:51.594Z,101658.03
2019-05-29T07:16:58.456Z,101669.36
2019-05-29T07:22:07.238Z,101669.36
2019-05-29T07:27:14.445Z,101673.89
2019-05-29T07:32:22.539Z,101682.48
2019-05-29T07:37:29.578Z,101703.68
2019-05-29T07:42:36.468Z,101703.68
2019-05-29T07:47:44.747Z,101705.96
2019-05-29T07:52:51.635Z,101700.83
2019-05-29T07:57:58.572Z,101715.68
2019-05-29T08:03:05.471Z,101715.68
2019-05-29T08:08:14.717Z,101722.61
2019-05-29T08:13:22.879Z,101722.61
2019-05-29T08:18:29.878Z,101715.37
2019-05-29T08:23:36.582Z,101724.61
2019-05-29T08:28:44.770Z,101741.57
2019-05-29T08:33:52.405Z,101740.89
2019-05-29T08:38:59.513Z,101740.89
2019-05-29T08:44:09.322Z,101737.89
2019-05-29T08:49:18.897Z,101741.80
2019-05-29T08:54:26.277Z,101751.02
2019-05-29T08:59:33.694Z,101754.78
2019-05-29T09:04:43.142Z,101755.81
2019-05-29T09:09:51.224Z,101755.81
2019-05-29T09:14:58.458Z,101769.09
2019-05-29T09:20:06.256Z,101769.09
2019-05-29T09:25:13.685Z,101765.77
2019-05-29T09:30:21.903Z,101759.65
2019-05-29T09:35:31.260Z,101775.09
2019-05-29T09:40:37.343Z,101778.52
2019-05-29T09:45:43.624Z,101782.21
2019-05-29T09:50:51.007Z,101794.46
2019-05-29T09:55:59.120Z,101793.13
2019-05-29T10:01:21.438Z,101802.75
2019-05-29T10:06:15.565Z,101802.75
2019-05-29T10:11:22.443Z,101814.70
2019-05-29T10:16:29.450Z,101814.70
2019-05-29T10:21:40.636Z,101813.80
2019-05-29T10:26:45.432Z,101815.00
2019-05-29T10:31:53.439Z,101804.59
2019-05-29T10:37:00.479Z,101802.82
2019-05-29T10:42:07.937Z,101802.82
2019-05-29T10:47:16.563Z,101808.80
2019-05-29T10:52:23.936Z,101816.50
2019-05-29T10:57:32.713Z,101813.81
2019-05-29T11:02:39.586Z,101814.41
2019-05-29T11:07:47.637Z,101819.42
2019-05-29T11:12:54.739Z,101819.42
2019-05-29T11:18:01.613Z,101819.67
2019-05-29T11:25:27.448Z,101817.53
2019-05-29T11:30:32.576Z,101819.27
2019-05-29T11:35:54.857Z,101809.89
2019-05-29T11:45:01.631Z,101815.00
2019-05-29T12:00:25.031Z,101804.49
2019-05-29T12:05:32.456Z,101805.59
2019-05-29T12:13:40.569Z,101807.73
2019-05-29T12:18:47.432Z,101809.62
2019-05-29T12:23:54.424Z,101809.62
2019-05-29T12:35:26.434Z,101802.95
2019-05-29T12:40:34.664Z,101813.80
2019-05-29T12:50:58.233Z,101819.66
2019-05-29T12:56:05.616Z,101810.64
2019-05-29T13:01:12.611Z,101811.81
2019-05-29T13:12:37.538Z,101803.91
2019-05-29T13:17:45.600Z,101807.68
2019-05-29T13:29:10.045Z,101795.41
2019-05-29T13:34:18.261Z,101793.75
2019-05-29T13:43:31.601Z,101811.35
2019-05-29T13:50:30.929Z,101807.81
2019-05-29T13:55:52.617Z,101796.84
2019-05-29T14:01:24.583Z,101797.92
2019-05-29T14:09:11.459Z,101802.25
2019-05-29T14:14:18.638Z,101803.02
2019-05-29T14:19:40.639Z,101801.64
2019-05-29T14:24:48.013Z,101804.72
2019-05-29T14:29:56.755Z,101804.72
2019-05-29T14:35:05.592Z,101807.52
2019-05-29T14:41:01.742Z,101808.84
2019-05-29T14:46:08.588Z,101820.80
2019-05-29T14:51:15.510Z,101809.98
2019-05-29T15:00:25.526Z,101811.97
2019-05-29T15:07:11.994Z,101809.65
2019-05-29T15:17:15.455Z,101819.94
2019-05-29T15:26:14.057Z,101811.39
2019-05-29T15:31:21.419Z,101816.70
2019-05-29T15:36:29.423Z,101817.75
2019-05-29T15:51:46.531Z,101822.56
2019-05-29T16:08:39.707Z,101824.18
2019-05-29T16:18:48.973Z,101827.59
2019-05-29T16:23:56.407Z,101835.62
2019-05-29T16:29:03.902Z,101835.12
2019-05-29T16:34:12.323Z,101841.09
2019-05-29T16:40:32.270Z,101850.14
2019-05-29T16:52:28.101Z,101867.25
2019-05-29T17:02:25.588Z,101876.14
2019-05-29T17:07:32.447Z,101882.17
2019-05-29T17:16:26.686Z,101890.09
2019-05-29T17:21:33.458Z,101899.39
2019-05-29T17:35:57.632Z,101895.17
2019-05-29T17:45:21.558Z,101902.25
2019-05-29T18:04:12.417Z,101914.66
2019-05-29T18:15:57.262Z,101928.05
2019-05-29T18:27:12.437Z,101938.34
2019-05-29T18:32:20.334Z,101941.90
2019-05-29T18:39:22.167Z,101946.51
2019-05-29T18:44:29.423Z,101958.16
2019-05-29T18:49:36.579Z,101966.14
2019-05-29T18:55:38.441Z,101971.23
2019-05-29T19:00:46.438Z,101973.55
2019-05-29T19:10:16.272Z,101988.39
2019-05-29T19:18:36.775Z,102001.38
2019-05-29T19:28:47.430Z,102008.46
2019-05-29T19:33:55.666Z,102019.42
2019-05-29T19:41:13.076Z,102033.46
2019-05-29T19:46:53.976Z,102038.94
2019-05-29T19:51:59.544Z,102055.50
2019-05-29T20:01:06.639Z,102059.95
2019-05-29T20:06:13.477Z,102075.20
2019-05-29T20:11:20.573Z,102075.20
2019-05-29T20:16:30.637Z,102092.08
2019-05-29T20:26:29.106Z,102097.66
2019-05-29T20:31:42.769Z,102097.66
2019-05-29T20:36:50.780Z,102107.50
2019-05-29T20:41:57.693Z,102108.94
2019-05-29T20:47:04.563Z,102109.30
2019-05-29T21:02:18.066Z,102126.62
2019-05-29T21:07:26.703Z,102128.02
2019-05-29T21:12:35.123Z,102131.95
2019-05-29T21:23:56.772Z,102132.75
2019-05-29T21:29:03.589Z,102138.84
2019-05-29T21:34:10.470Z,102136.28
2019-05-29T21:42:30.662Z,102139.56
2019-05-29T21:47:38.871Z,102153.94
2019-05-29T21:52:47.566Z,102153.94
2019-05-29T22:00:53.063Z,102154.02
2019-05-29T22:06:01.762Z,102155.13
2019-05-29T22:21:50.962Z,102161.23
2019-05-29T22:28:41.283Z,102170.73
2019-05-29T22:33:48.443Z,102172.14
2019-05-29T22:38:55.576Z,102176.66
2019-05-29T22:44:02.681Z,102178.76
2019-05-29T22:52:02.225Z,102175.73
2019-05-29T22:57:08.613Z,102182.88
2019-05-29T23:02:15.480Z,102179.90
2019-05-29T23:07:22.477Z,102184.29
2019-05-29T23:14:43.054Z,102175.58
2019-05-29T23:19:50.258Z,102181.70
2019-05-29T23:32:14.615Z,102187.45
2019-05-29T23:37:21.435Z,102171.63
2019-05-29T23:42:29.433Z,102171.63
2019-05-29T23:47:37.454Z,102174.58
2019-05-29T23:53:15.574Z,102169.78
2019-05-29T23:58:22.438Z,102174.72
